WS10 weather

Casey Lake Airport
Waupaca, Wisconsin, United States

Public forecast

Using degrees Fahrenheit for public forecast. Weather courtesy of forecast.io.

METAR (pilot weather report)

Closest report is Waupaca Municipal Airport, 4.5 nm (8.3 km) S. Retrieved 2019/08/25 04:35 UTC (18 minutes ago):

KPCZ 250435Z AUTO 00000KT 10SM CLR 13/12 A3023 RMK AO2 T01310119

TAF (pilot weather forecast)

Forecast is more than 12 hours old.

Closest forecast is Appleton International Airport, 23.2 nm (42.9 km) ESE. Retrieved 2019/08/24 00:24 UTC (1 day ago):

TAF KATW 242321Z 2500/2524 15006KT P6SM SCT060 FM250100 12003KT P6SM SKC FM251500 14007KT P6SM SCT035 SCT150